GOTT

Tambacounda Airport

Tambacounda, Senegal
METAR GOTT 200800Z 20008KT 180V250 CAVOK 28/17 Q1012
Observed Flight Rules
Jun-20 @ 08:00 UTC (an hour ago) Visual Flight Rules
Wind Visibility Clouds
200° at 8 knots 10,000+ meters
  • Clear skies
Temperatures Readings
Current 28°C / 82°F
Dewpoint 17°C / 63°F
Humidity 51%
Altimeter 29.88" Hg
Pressure 1012 hPa
Elevation 50
METAR GOTT 200800Z 20008KT 180V250 CAVOK 28/17 Q1012
Observed Flight Rules
Jun-20 @ 08:00 UTC
(an hour ago)
VFR
Wind Visibility
200° at 8 knots 10,000+ meters
Clouds
  • Clear skies
Temperature Dewpoint
28°C / 82°F 17°C / 63°F
Humidity Altimeter Pressure
51% 29.88" Hg 1012 hPa